NCAR-RAP Real-Time Weather Data

Output produced by METARs form (19 June 2019  10:41 UTC)
found at http://weather.rap.ucar.edu/surface/
 
KSYR 190954Z 35004KT 10SM FEW030 FEW120 SCT250 16/14 A2984 RMK AO2 SLP098 T01610144
KSYR 190854Z 00000KT 10SM FEW040 FEW100 17/15 A2982 RMK AO2 SLP094 T01670150 56013
KSYR 190754Z 00000KT 10SM SCT100 17/15 A2983 RMK AO2 SLP096 T01720150
KSYR 190654Z 11003KT 10SM FEW060 OVC085 18/15 A2985 RMK AO2 SLP101 OVC V BKN T01830150
KSYR 190554Z 13003KT 10SM SCT037 SCT055 BKN085 18/15 A2986 RMK AO2 SLP107 T01830150 10233 20178 58004
KSYR 190454Z 12003KT 10SM FEW055 SCT080 BKN095 19/14 A2987 RMK AO2 SLP108 T01890139 402720150
KSYR 190354Z 00000KT 10SM FEW080 BKN095 BKN200 19/14 A2988 RMK AO2 SLP111 T01890139
KSYR 190254Z 26003KT 10SM FEW090 SCT200 18/13 A2988 RMK AO2 SLP112 T01830128 51007
KSYR 190154Z 24003KT 10SM FEW090 SCT200 19/13 A2987 RMK AO2 SLP112 T01940128
KSYR 190054Z 33003KT 10SM FEW090 BKN200 21/13 A2987 RMK AO2 SLP109 T02060128
KSYR 182354Z 35008KT 10SM FEW040 SCT090 BKN200 23/14 A2985 RMK AO2 SLP105 T02330144 10272 20233 55004
KSYR 182254Z 00000KT 10SM FEW040 SCT090 BKN200 25/17 A2985 RMK AO2 SLP102 T02500167
KSYR 182154Z 05003KT 10SM FEW040 SCT090 BKN200 25/17 A2986 RMK AO2 SLP105 T02500167
KSYR 182054Z 00000KT 10SM FEW036 BKN065 BKN200 27/17 A2987 RMK AO2 SLP108 T02670167 58009
KSYR 181954Z 00000KT 10SM SCT036 BKN045 BKN065 26/17 A2988 RMK AO2 SLP113 T02560167
KSYR 181854Z 02006KT 10SM FEW036 BKN045 BKN065 25/17 A2989 RMK AO2 SLP117 T02500172
KSYR 181754Z 00000KT 10SM FEW040 SCT070 BKN200 BKN250 25/16 A2990 RMK AO2 SLP118 T02500156 10261 20167 56013
KSYR 181654Z VRB03KT 10SM FEW065 FEW100 SCT200 BKN250 26/16 A2991 RMK AO2 SLP121 T02560156
KSYR 181554Z 00000KT 10SM FEW060 FEW070 SCT160 BKN220 23/16 A2992 RMK AO2 SLP127 T02330156
KSYR 181454Z 11004KT 10SM FEW055 BKN065 OVC180 21/14 A2993 RMK AO2 SLP132 T02060144 58005
KSYR 181354Z 11003KT 10SM FEW045 SCT055 BKN075 OVC180 19/15 A2994 RMK AO2 SLP135 T01940150
KSYR 181254Z 02004KT 10SM BKN055 OVC070 18/14 A2995 RMK AO2 SLP138 T01780144